sensor_id;sensor_type;location;lat;lon;timestamp;temperature;humidity
40454;DHT22;26160;51.858;4.398;2023-12-20T00:01:06;8.70;99.90
40454;DHT22;26160;51.858;4.398;2023-12-20T00:03:32;8.70;99.90
40454;DHT22;26160;51.858;4.398;2023-12-20T00:05:58;8.80;99.90
40454;DHT22;26160;51.858;4.398;2023-12-20T00:08:24;8.80;99.90
40454;DHT22;26160;51.858;4.398;2023-12-20T00:10:51;8.80;99.90
40454;DHT22;26160;51.858;4.398;2023-12-20T00:13:17;8.80;99.90
40454;DHT22;26160;51.858;4.398;2023-12-20T00:15:43;8.80;99.90
40454;DHT22;26160;51.858;4.398;2023-12-20T00:18:09;8.70;99.90
40454;DHT22;26160;51.858;4.398;2023-12-20T00:20:35;8.60;99.90
40454;DHT22;26160;51.858;4.398;2023-12-20T00:23:01;8.60;99.90
40454;DHT22;26160;51.858;4.398;2023-12-20T00:25:28;8.50;99.90
40454;DHT22;26160;51.858;4.398;2023-12-20T00:27:55;8.50;99.90
40454;DHT22;26160;51.858;4.398;2023-12-20T00:30:21;8.50;99.90
40454;DHT22;26160;51.858;4.398;2023-12-20T00:32:47;8.50;99.90
40454;DHT22;26160;51.858;4.398;2023-12-20T00:35:14;8.50;99.90
40454;DHT22;26160;51.858;4.398;2023-12-20T00:37:40;8.50;99.90
40454;DHT22;26160;51.858;4.398;2023-12-20T00:40:06;8.50;99.90
40454;DHT22;26160;51.858;4.398;2023-12-20T00:42:33;8.40;99.90
40454;DHT22;26160;51.858;4.398;2023-12-20T00:45:00;8.40;99.90
40454;DHT22;26160;51.858;4.398;2023-12-20T00:47:26;8.50;99.90
40454;DHT22;26160;51.858;4.398;2023-12-20T00:49:52;8.40;99.90
40454;DHT22;26160;51.858;4.398;2023-12-20T00:52:18;8.50;99.90
40454;DHT22;26160;51.858;4.398;2023-12-20T00:54:45;8.50;99.90
40454;DHT22;26160;51.858;4.398;2023-12-20T00:57:11;8.50;99.90
40454;DHT22;26160;51.858;4.398;2023-12-20T00:59:37;8.40;99.90
40454;DHT22;26160;51.858;4.398;2023-12-20T01:02:03;8.40;99.90
40454;DHT22;26160;51.858;4.398;2023-12-20T01:04:29;8.40;99.90
40454;DHT22;26160;51.858;4.398;2023-12-20T01:06:56;8.50;99.90
40454;DHT22;26160;51.858;4.398;2023-12-20T01:09:22;8.50;99.90
40454;DHT22;26160;51.858;4.398;2023-12-20T01:11:53;8.50;99.90
40454;DHT22;26160;51.858;4.398;2023-12-20T01:14:19;8.60;99.90
40454;DHT22;26160;51.858;4.398;2023-12-20T01:16:45;8.70;99.90
40454;DHT22;26160;51.858;4.398;2023-12-20T01:19:12;8.80;99.90
40454;DHT22;26160;51.858;4.398;2023-12-20T01:21:39;8.90;99.90
40454;DHT22;26160;51.858;4.398;2023-12-20T01:24:06;9.00;99.90
40454;DHT22;26160;51.858;4.398;2023-12-20T01:26:32;9.00;99.90
40454;DHT22;26160;51.858;4.398;2023-12-20T01:28:58;9.10;99.90
40454;DHT22;26160;51.858;4.398;2023-12-20T01:31:24;9.10;99.90
40454;DHT22;26160;51.858;4.398;2023-12-20T01:33:50;9.10;99.90
40454;DHT22;26160;51.858;4.398;2023-12-20T01:36:16;9.10;99.90
40454;DHT22;26160;51.858;4.398;2023-12-20T01:38:42;9.20;99.90
40454;DHT22;26160;51.858;4.398;2023-12-20T01:41:09;9.20;99.90
40454;DHT22;26160;51.858;4.398;2023-12-20T01:43:35;9.20;99.90
40454;DHT22;26160;51.858;4.398;2023-12-20T01:46:01;9.20;99.90
40454;DHT22;26160;51.858;4.398;2023-12-20T01:48:29;9.20;99.90
40454;DHT22;26160;51.858;4.398;2023-12-20T01:50:59;9.20;99.90
40454;DHT22;26160;51.858;4.398;2023-12-20T01:53:27;9.20;99.90
40454;DHT22;26160;51.858;4.398;2023-12-20T01:55:55;9.20;99.90
40454;DHT22;26160;51.858;4.398;2023-12-20T01:58:22;9.10;99.90
40454;DHT22;26160;51.858;4.398;2023-12-20T02:03:32;9.00;99.90
40454;DHT22;26160;51.858;4.398;2023-12-20T02:06:00;9.00;99.90
40454;DHT22;26160;51.858;4.398;2023-12-20T02:08:34;9.00;99.90
40454;DHT22;26160;51.858;4.398;2023-12-20T02:11:10;9.10;99.90
40454;DHT22;26160;51.858;4.398;2023-12-20T02:13:53;9.00;99.90
40454;DHT22;26160;51.858;4.398;2023-12-20T02:16:22;9.10;99.90
40454;DHT22;26160;51.858;4.398;2023-12-20T02:19:00;9.10;99.90
40454;DHT22;26160;51.858;4.398;2023-12-20T02:21:36;9.10;99.90
40454;DHT22;26160;51.858;4.398;2023-12-20T02:24:09;9.10;99.90
40454;DHT22;26160;51.858;4.398;2023-12-20T02:27:00;9.10;99.90
40454;DHT22;26160;51.858;4.398;2023-12-20T02:29:40;9.10;99.90
40454;DHT22;26160;51.858;4.398;2023-12-20T02:32:12;9.10;99.90
40454;DHT22;26160;51.858;4.398;2023-12-20T02:34:51;9.20;99.90
40454;DHT22;26160;51.858;4.398;2023-12-20T02:37:27;9.20;99.90
40454;DHT22;26160;51.858;4.398;2023-12-20T02:40:09;9.20;99.90
40454;DHT22;26160;51.858;4.398;2023-12-20T02:43:07;9.10;99.90
40454;DHT22;26160;51.858;4.398;2023-12-20T02:45:36;9.10;99.90
40454;DHT22;26160;51.858;4.398;2023-12-20T02:48:13;9.10;99.90
40454;DHT22;26160;51.858;4.398;2023-12-20T02:50:48;9.10;99.90
40454;DHT22;26160;51.858;4.398;2023-12-20T02:53:19;9.00;99.90
40454;DHT22;26160;51.858;4.398;2023-12-20T02:55:51;9.00;99.90
40454;DHT22;26160;51.858;4.398;2023-12-20T02:58:22;9.00;99.90
40454;DHT22;26160;51.858;4.398;2023-12-20T03:01:09;8.90;99.90
40454;DHT22;26160;51.858;4.398;2023-12-20T03:03:41;8.90;99.90
40454;DHT22;26160;51.858;4.398;2023-12-20T03:06:22;8.90;99.90
40454;DHT22;26160;51.858;4.398;2023-12-20T03:09:11;9.00;99.90
40454;DHT22;26160;51.858;4.398;2023-12-20T03:11:52;9.00;99.90
40454;DHT22;26160;51.858;4.398;2023-12-20T03:14:33;9.00;99.90
40454;DHT22;26160;51.858;4.398;2023-12-20T03:17:01;9.00;99.90
40454;DHT22;26160;51.858;4.398;2023-12-20T03:19:29;9.00;99.90
40454;DHT22;26160;51.858;4.398;2023-12-20T03:21:55;9.00;99.90
40454;DHT22;26160;51.858;4.398;2023-12-20T03:24:22;9.00;99.90
40454;DHT22;26160;51.858;4.398;2023-12-20T03:26:48;9.00;99.90
40454;DHT22;26160;51.858;4.398;2023-12-20T03:29:14;9.00;99.90
40454;DHT22;26160;51.858;4.398;2023-12-20T03:31:41;9.00;99.90
40454;DHT22;26160;51.858;4.398;2023-12-20T03:34:11;9.00;99.90
40454;DHT22;26160;51.858;4.398;2023-12-20T03:36:38;9.00;99.90
40454;DHT22;26160;51.858;4.398;2023-12-20T03:39:05;9.00;99.90
40454;DHT22;26160;51.858;4.398;2023-12-20T03:41:31;9.00;99.90
40454;DHT22;26160;51.858;4.398;2023-12-20T03:43:59;9.00;99.90
40454;DHT22;26160;51.858;4.398;2023-12-20T03:46:25;8.90;99.90
40454;DHT22;26160;51.858;4.398;2023-12-20T03:48:52;8.80;99.90
40454;DHT22;26160;51.858;4.398;2023-12-20T03:51:18;8.80;99.90
40454;DHT22;26160;51.858;4.398;2023-12-20T03:53:44;8.70;99.90
40454;DHT22;26160;51.858;4.398;2023-12-20T03:56:12;8.70;99.90
40454;DHT22;26160;51.858;4.398;2023-12-20T03:58:38;8.60;99.90
40454;DHT22;26160;51.858;4.398;2023-12-20T04:01:09;8.50;99.90
40454;DHT22;26160;51.858;4.398;2023-12-20T04:03:38;8.50;99.90
40454;DHT22;26160;51.858;4.398;2023-12-20T04:06:04;8.40;99.90
40454;DHT22;26160;51.858;4.398;2023-12-20T04:08:32;8.40;99.90
40454;DHT22;26160;51.858;4.398;2023-12-20T04:10:58;8.40;99.90
40454;DHT22;26160;51.858;4.398;2023-12-20T04:13:26;8.40;99.90
40454;DHT22;26160;51.858;4.398;2023-12-20T04:15:53;8.40;99.90
40454;DHT22;26160;51.858;4.398;2023-12-20T04:18:19;8.40;99.90
40454;DHT22;26160;51.858;4.398;2023-12-20T04:20:47;8.50;99.90
40454;DHT22;26160;51.858;4.398;2023-12-20T04:23:13;8.50;99.90
40454;DHT22;26160;51.858;4.398;2023-12-20T04:25:40;8.40;99.90
40454;DHT22;26160;51.858;4.398;2023-12-20T04:28:07;8.40;99.90
40454;DHT22;26160;51.858;4.398;2023-12-20T04:30:35;8.40;99.90
40454;DHT22;26160;51.858;4.398;2023-12-20T04:33:03;8.40;99.90
40454;DHT22;26160;51.858;4.398;2023-12-20T04:35:30;8.30;99.90
40454;DHT22;26160;51.858;4.398;2023-12-20T04:37:56;8.40;99.90
40454;DHT22;26160;51.858;4.398;2023-12-20T04:40:25;8.30;99.90
40454;DHT22;26160;51.858;4.398;2023-12-20T04:42:52;8.40;99.90
40454;DHT22;26160;51.858;4.398;2023-12-20T04:45:18;8.40;99.90
40454;DHT22;26160;51.858;4.398;2023-12-20T04:47:45;8.30;99.90
40454;DHT22;26160;51.858;4.398;2023-12-20T04:50:15;8.40;99.90
40454;DHT22;26160;51.858;4.398;2023-12-20T04:52:44;8.30;99.90
40454;DHT22;26160;51.858;4.398;2023-12-20T04:55:20;8.30;99.90
40454;DHT22;26160;51.858;4.398;2023-12-20T04:57:47;8.30;99.90
40454;DHT22;26160;51.858;4.398;2023-12-20T05:00:16;8.20;99.90
40454;DHT22;26160;51.858;4.398;2023-12-20T05:02:44;8.20;99.90
40454;DHT22;26160;51.858;4.398;2023-12-20T05:05:12;8.30;99.90
40454;DHT22;26160;51.858;4.398;2023-12-20T05:07:41;8.30;99.90
40454;DHT22;26160;51.858;4.398;2023-12-20T05:10:08;8.30;99.90
40454;DHT22;26160;51.858;4.398;2023-12-20T05:12:38;8.20;99.90
40454;DHT22;26160;51.858;4.398;2023-12-20T05:15:08;8.20;99.90
40454;DHT22;26160;51.858;4.398;2023-12-20T05:17:34;8.20;99.90
40454;DHT22;26160;51.858;4.398;2023-12-20T05:20:01;8.20;99.90
40454;DHT22;26160;51.858;4.398;2023-12-20T05:22:28;8.20;99.90
40454;DHT22;26160;51.858;4.398;2023-12-20T05:24:57;8.20;99.90
40454;DHT22;26160;51.858;4.398;2023-12-20T05:27:24;8.20;99.90
40454;DHT22;26160;51.858;4.398;2023-12-20T05:29:53;8.20;99.90
40454;DHT22;26160;51.858;4.398;2023-12-20T05:32:26;8.20;99.90
40454;DHT22;26160;51.858;4.398;2023-12-20T05:34:52;8.20;99.90
40454;DHT22;26160;51.858;4.398;2023-12-20T05:37:21;8.20;99.90
40454;DHT22;26160;51.858;4.398;2023-12-20T05:39:48;8.20;99.90
40454;DHT22;26160;51.858;4.398;2023-12-20T05:42:15;8.20;99.90
40454;DHT22;26160;51.858;4.398;2023-12-20T05:44:42;8.20;99.90
40454;DHT22;26160;51.858;4.398;2023-12-20T05:47:14;8.20;99.90
40454;DHT22;26160;51.858;4.398;2023-12-20T05:49:41;8.30;99.90
40454;DHT22;26160;51.858;4.398;2023-12-20T05:52:14;8.30;99.90
40454;DHT22;26160;51.858;4.398;2023-12-20T05:55:22;8.30;99.90
40454;DHT22;26160;51.858;4.398;2023-12-20T05:58:02;8.30;99.90
40454;DHT22;26160;51.858;4.398;2023-12-20T06:00:37;8.40;99.90
40454;DHT22;26160;51.858;4.398;2023-12-20T06:03:03;8.30;99.90
40454;DHT22;26160;51.858;4.398;2023-12-20T06:05:32;8.30;99.90
40454;DHT22;26160;51.858;4.398;2023-12-20T06:08:33;8.30;99.90
40454;DHT22;26160;51.858;4.398;2023-12-20T06:11:20;8.40;99.90
40454;DHT22;26160;51.858;4.398;2023-12-20T06:13:46;8.30;99.90
40454;DHT22;26160;51.858;4.398;2023-12-20T06:16:13;8.30;99.90
40454;DHT22;26160;51.858;4.398;2023-12-20T06:18:39;8.40;99.90
40454;DHT22;26160;51.858;4.398;2023-12-20T06:21:05;8.50;99.90
40454;DHT22;26160;51.858;4.398;2023-12-20T06:24:02;8.60;99.90
40454;DHT22;26160;51.858;4.398;2023-12-20T06:26:28;8.60;99.90
40454;DHT22;26160;51.858;4.398;2023-12-20T06:28:54;8.70;99.90
40454;DHT22;26160;51.858;4.398;2023-12-20T06:31:21;8.80;99.90
40454;DHT22;26160;51.858;4.398;2023-12-20T06:33:47;8.80;99.90
40454;DHT22;26160;51.858;4.398;2023-12-20T06:36:15;8.90;99.90
40454;DHT22;26160;51.858;4.398;2023-12-20T06:38:41;8.90;99.90
40454;DHT22;26160;51.858;4.398;2023-12-20T06:41:13;8.90;99.90
40454;DHT22;26160;51.858;4.398;2023-12-20T06:43:40;8.90;99.90
40454;DHT22;26160;51.858;4.398;2023-12-20T06:46:06;9.00;99.90
40454;DHT22;26160;51.858;4.398;2023-12-20T06:48:32;9.00;99.90
40454;DHT22;26160;51.858;4.398;2023-12-20T06:51:00;9.00;99.90
40454;DHT22;26160;51.858;4.398;2023-12-20T06:53:28;8.90;99.90
40454;DHT22;26160;51.858;4.398;2023-12-20T06:55:54;8.90;99.90
40454;DHT22;26160;51.858;4.398;2023-12-20T06:58:22;8.80;99.90
40454;DHT22;26160;51.858;4.398;2023-12-20T07:00:50;8.80;99.90
40454;DHT22;26160;51.858;4.398;2023-12-20T07:03:17;8.80;99.90
40454;DHT22;26160;51.858;4.398;2023-12-20T07:05:44;8.70;99.90
40454;DHT22;26160;51.858;4.398;2023-12-20T07:08:10;8.70;99.90
40454;DHT22;26160;51.858;4.398;2023-12-20T07:10:36;8.60;99.90
40454;DHT22;26160;51.858;4.398;2023-12-20T07:13:06;8.60;99.90
40454;DHT22;26160;51.858;4.398;2023-12-20T07:15:32;8.60;99.90
40454;DHT22;26160;51.858;4.398;2023-12-20T07:17:58;8.60;99.90
40454;DHT22;26160;51.858;4.398;2023-12-20T07:20:29;8.70;99.90
40454;DHT22;26160;51.858;4.398;2023-12-20T07:22:55;8.70;99.90
40454;DHT22;26160;51.858;4.398;2023-12-20T07:25:21;8.70;99.90
40454;DHT22;26160;51.858;4.398;2023-12-20T07:27:47;8.70;99.90
40454;DHT22;26160;51.858;4.398;2023-12-20T07:30:14;8.70;99.90
40454;DHT22;26160;51.858;4.398;2023-12-20T07:32:40;8.70;99.90
40454;DHT22;26160;51.858;4.398;2023-12-20T07:35:06;8.60;99.90
40454;DHT22;26160;51.858;4.398;2023-12-20T07:37:32;8.60;99.90
40454;DHT22;26160;51.858;4.398;2023-12-20T07:39:59;8.60;99.90
40454;DHT22;26160;51.858;4.398;2023-12-20T07:42:25;8.50;99.90
40454;DHT22;26160;51.858;4.398;2023-12-20T07:44:52;8.60;99.90
40454;DHT22;26160;51.858;4.398;2023-12-20T07:47:18;8.50;99.90
40454;DHT22;26160;51.858;4.398;2023-12-20T07:49:50;8.60;99.90
40454;DHT22;26160;51.858;4.398;2023-12-20T07:52:18;8.60;99.90
40454;DHT22;26160;51.858;4.398;2023-12-20T07:54:45;8.60;99.90
40454;DHT22;26160;51.858;4.398;2023-12-20T07:57:11;8.60;99.90
40454;DHT22;26160;51.858;4.398;2023-12-20T07:59:38;8.60;99.90
40454;DHT22;26160;51.858;4.398;2023-12-20T08:02:04;8.60;99.90
40454;DHT22;26160;51.858;4.398;2023-12-20T08:04:30;8.60;99.90
40454;DHT22;26160;51.858;4.398;2023-12-20T08:06:56;8.70;99.90
40454;DHT22;26160;51.858;4.398;2023-12-20T08:09:22;8.80;99.90
40454;DHT22;26160;51.858;4.398;2023-12-20T08:11:49;8.70;99.90
40454;DHT22;26160;51.858;4.398;2023-12-20T08:14:15;8.70;99.90
40454;DHT22;26160;51.858;4.398;2023-12-20T08:16:41;8.70;99.90
40454;DHT22;26160;51.858;4.398;2023-12-20T08:19:08;8.80;99.90
40454;DHT22;26160;51.858;4.398;2023-12-20T08:21:34;8.90;99.90
40454;DHT22;26160;51.858;4.398;2023-12-20T08:24:00;8.90;99.90
40454;DHT22;26160;51.858;4.398;2023-12-20T08:26:26;8.90;99.90
40454;DHT22;26160;51.858;4.398;2023-12-20T08:28:52;9.00;99.90
40454;DHT22;26160;51.858;4.398;2023-12-20T08:31:19;9.00;99.90
40454;DHT22;26160;51.858;4.398;2023-12-20T08:33:46;9.10;99.90
40454;DHT22;26160;51.858;4.398;2023-12-20T08:36:13;9.10;99.90
40454;DHT22;26160;51.858;4.398;2023-12-20T08:38:39;9.20;99.90
40454;DHT22;26160;51.858;4.398;2023-12-20T08:41:06;9.20;99.90
40454;DHT22;26160;51.858;4.398;2023-12-20T08:43:33;9.20;99.90
40454;DHT22;26160;51.858;4.398;2023-12-20T08:45:59;9.30;99.90
40454;DHT22;26160;51.858;4.398;2023-12-20T08:48:28;9.50;99.90
40454;DHT22;26160;51.858;4.398;2023-12-20T08:50:54;9.50;99.90
40454;DHT22;26160;51.858;4.398;2023-12-20T08:53:20;9.60;99.90
40454;DHT22;26160;51.858;4.398;2023-12-20T08:55:47;9.60;99.90
40454;DHT22;26160;51.858;4.398;2023-12-20T08:58:13;9.70;99.90
40454;DHT22;26160;51.858;4.398;2023-12-20T09:00:40;9.70;99.90
40454;DHT22;26160;51.858;4.398;2023-12-20T09:03:06;9.70;99.90
40454;DHT22;26160;51.858;4.398;2023-12-20T09:05:32;9.70;99.90
40454;DHT22;26160;51.858;4.398;2023-12-20T09:07:58;9.80;99.90
40454;DHT22;26160;51.858;4.398;2023-12-20T09:10:24;9.80;99.90
40454;DHT22;26160;51.858;4.398;2023-12-20T09:12:52;9.80;99.90
40454;DHT22;26160;51.858;4.398;2023-12-20T09:15:25;9.80;99.90
40454;DHT22;26160;51.858;4.398;2023-12-20T09:17:52;9.90;99.90
40454;DHT22;26160;51.858;4.398;2023-12-20T09:20:18;9.90;99.90
40454;DHT22;26160;51.858;4.398;2023-12-20T09:22:45;9.90;99.90
40454;DHT22;26160;51.858;4.398;2023-12-20T09:25:12;9.90;99.90
40454;DHT22;26160;51.858;4.398;2023-12-20T09:27:39;9.90;99.90
40454;DHT22;26160;51.858;4.398;2023-12-20T09:30:06;9.90;99.90
40454;DHT22;26160;51.858;4.398;2023-12-20T09:32:32;9.90;99.90
40454;DHT22;26160;51.858;4.398;2023-12-20T09:34:58;9.90;99.90
40454;DHT22;26160;51.858;4.398;2023-12-20T09:37:27;9.90;99.90
40454;DHT22;26160;51.858;4.398;2023-12-20T09:39:54;9.90;99.90
40454;DHT22;26160;51.858;4.398;2023-12-20T09:45:09;9.90;99.90
40454;DHT22;26160;51.858;4.398;2023-12-20T09:47:37;10.00;99.90
40454;DHT22;26160;51.858;4.398;2023-12-20T09:50:05;10.00;99.90
40454;DHT22;26160;51.858;4.398;2023-12-20T09:52:32;10.00;99.90
40454;DHT22;26160;51.858;4.398;2023-12-20T09:54:58;10.10;99.90
40454;DHT22;26160;51.858;4.398;2023-12-20T09:57:25;10.10;99.90
40454;DHT22;26160;51.858;4.398;2023-12-20T09:59:51;10.10;99.90
40454;DHT22;26160;51.858;4.398;2023-12-20T10:02:20;10.10;99.90
40454;DHT22;26160;51.858;4.398;2023-12-20T10:04:48;10.20;99.90
40454;DHT22;26160;51.858;4.398;2023-12-20T10:07:14;10.30;99.90
40454;DHT22;26160;51.858;4.398;2023-12-20T10:09:42;10.30;99.90
40454;DHT22;26160;51.858;4.398;2023-12-20T10:12:08;10.40;99.90
40454;DHT22;26160;51.858;4.398;2023-12-20T10:14:34;10.40;99.90
40454;DHT22;26160;51.858;4.398;2023-12-20T10:17:04;10.50;99.90
40454;DHT22;26160;51.858;4.398;2023-12-20T10:19:31;10.50;99.90
40454;DHT22;26160;51.858;4.398;2023-12-20T10:22:01;10.60;99.90
40454;DHT22;26160;51.858;4.398;2023-12-20T10:24:30;10.60;99.90
40454;DHT22;26160;51.858;4.398;2023-12-20T10:27:07;10.60;99.90
40454;DHT22;26160;51.858;4.398;2023-12-20T10:29:37;10.60;99.90
40454;DHT22;26160;51.858;4.398;2023-12-20T10:32:23;10.50;99.90
40454;DHT22;26160;51.858;4.398;2023-12-20T10:34:50;10.50;99.90
40454;DHT22;26160;51.858;4.398;2023-12-20T10:37:17;10.60;99.90
40454;DHT22;26160;51.858;4.398;2023-12-20T10:39:43;10.50;99.90
40454;DHT22;26160;51.858;4.398;2023-12-20T10:42:11;10.60;99.90
40454;DHT22;26160;51.858;4.398;2023-12-20T10:44:38;10.50;99.90
40454;DHT22;26160;51.858;4.398;2023-12-20T10:47:05;10.60;99.90
40454;DHT22;26160;51.858;4.398;2023-12-20T10:49:36;10.60;99.90
40454;DHT22;26160;51.858;4.398;2023-12-20T10:52:04;10.60;99.90
40454;DHT22;26160;51.858;4.398;2023-12-20T10:54:31;10.60;99.90
40454;DHT22;26160;51.858;4.398;2023-12-20T10:56:58;10.40;99.90
40454;DHT22;26160;51.858;4.398;2023-12-20T10:59:28;10.50;99.90
40454;DHT22;26160;51.858;4.398;2023-12-20T11:01:56;10.50;99.90
40454;DHT22;26160;51.858;4.398;2023-12-20T11:04:44;10.60;99.90
40454;DHT22;26160;51.858;4.398;2023-12-20T11:07:23;10.70;99.90
40454;DHT22;26160;51.858;4.398;2023-12-20T11:12:52;10.90;99.90
40454;DHT22;26160;51.858;4.398;2023-12-20T11:15:20;10.90;99.90
40454;DHT22;26160;51.858;4.398;2023-12-20T11:17:54;10.90;99.90
40454;DHT22;26160;51.858;4.398;2023-12-20T11:20:35;11.00;99.90
40454;DHT22;26160;51.858;4.398;2023-12-20T11:23:02;11.00;99.90
40454;DHT22;26160;51.858;4.398;2023-12-20T11:25:28;11.00;99.90
40454;DHT22;26160;51.858;4.398;2023-12-20T11:28:09;10.90;99.90
40454;DHT22;26160;51.858;4.398;2023-12-20T11:30:50;11.00;99.90
40454;DHT22;26160;51.858;4.398;2023-12-20T11:33:17;11.00;99.90
40454;DHT22;26160;51.858;4.398;2023-12-20T11:35:50;11.00;99.90
40454;DHT22;26160;51.858;4.398;2023-12-20T11:38:16;10.90;99.90
40454;DHT22;26160;51.858;4.398;2023-12-20T11:40:43;10.90;99.90
40454;DHT22;26160;51.858;4.398;2023-12-20T11:43:10;11.00;99.90
40454;DHT22;26160;51.858;4.398;2023-12-20T11:45:36;11.00;99.90
40454;DHT22;26160;51.858;4.398;2023-12-20T11:48:06;11.10;99.90
40454;DHT22;26160;51.858;4.398;2023-12-20T11:50:32;11.20;99.90
40454;DHT22;26160;51.858;4.398;2023-12-20T11:52:58;11.20;99.90
40454;DHT22;26160;51.858;4.398;2023-12-20T11:55:25;11.10;99.90
40454;DHT22;26160;51.858;4.398;2023-12-20T11:57:51;11.10;99.90
40454;DHT22;26160;51.858;4.398;2023-12-20T12:00:18;11.00;99.90
40454;DHT22;26160;51.858;4.398;2023-12-20T12:02:55;10.90;99.90
40454;DHT22;26160;51.858;4.398;2023-12-20T12:05:22;10.90;99.90
40454;DHT22;26160;51.858;4.398;2023-12-20T12:07:48;10.90;99.90
40454;DHT22;26160;51.858;4.398;2023-12-20T12:10:14;10.90;99.90
40454;DHT22;26160;51.858;4.398;2023-12-20T12:12:40;10.90;99.90
40454;DHT22;26160;51.858;4.398;2023-12-20T12:15:07;10.90;99.90
40454;DHT22;26160;51.858;4.398;2023-12-20T12:17:34;11.00;99.90
40454;DHT22;26160;51.858;4.398;2023-12-20T12:20:05;10.90;99.90
40454;DHT22;26160;51.858;4.398;2023-12-20T12:22:32;10.90;99.90
40454;DHT22;26160;51.858;4.398;2023-12-20T12:24:59;11.00;99.90
40454;DHT22;26160;51.858;4.398;2023-12-20T12:27:35;10.90;99.90
40454;DHT22;26160;51.858;4.398;2023-12-20T12:30:02;10.90;99.90
40454;DHT22;26160;51.858;4.398;2023-12-20T12:32:29;10.80;99.90
40454;DHT22;26160;51.858;4.398;2023-12-20T12:34:55;10.80;99.90
40454;DHT22;26160;51.858;4.398;2023-12-20T12:37:22;10.80;99.90
40454;DHT22;26160;51.858;4.398;2023-12-20T12:39:50;10.90;99.90
40454;DHT22;26160;51.858;4.398;2023-12-20T12:42:18;10.90;99.90
40454;DHT22;26160;51.858;4.398;2023-12-20T12:44:45;10.90;99.90
40454;DHT22;26160;51.858;4.398;2023-12-20T12:47:11;10.80;99.90
40454;DHT22;26160;51.858;4.398;2023-12-20T12:49:37;10.80;99.90
40454;DHT22;26160;51.858;4.398;2023-12-20T12:52:04;10.80;99.90
40454;DHT22;26160;51.858;4.398;2023-12-20T12:54:30;10.80;99.90
40454;DHT22;26160;51.858;4.398;2023-12-20T12:56:56;10.80;99.90
40454;DHT22;26160;51.858;4.398;2023-12-20T12:59:24;10.80;99.90
40454;DHT22;26160;51.858;4.398;2023-12-20T13:01:53;10.80;99.90
40454;DHT22;26160;51.858;4.398;2023-12-20T13:04:19;10.80;99.90
40454;DHT22;26160;51.858;4.398;2023-12-20T13:06:45;10.80;99.90
40454;DHT22;26160;51.858;4.398;2023-12-20T13:09:12;10.70;99.90
40454;DHT22;26160;51.858;4.398;2023-12-20T13:11:38;10.70;99.90
40454;DHT22;26160;51.858;4.398;2023-12-20T13:14:05;10.70;99.90
40454;DHT22;26160;51.858;4.398;2023-12-20T13:16:31;10.70;99.90
40454;DHT22;26160;51.858;4.398;2023-12-20T13:18:58;10.70;99.90
40454;DHT22;26160;51.858;4.398;2023-12-20T13:21:25;10.70;99.90
40454;DHT22;26160;51.858;4.398;2023-12-20T13:23:51;10.70;99.90
40454;DHT22;26160;51.858;4.398;2023-12-20T13:26:20;10.60;99.90
40454;DHT22;26160;51.858;4.398;2023-12-20T13:28:48;10.60;99.90
40454;DHT22;26160;51.858;4.398;2023-12-20T13:31:14;10.60;99.90
40454;DHT22;26160;51.858;4.398;2023-12-20T13:33:40;10.60;99.90
40454;DHT22;26160;51.858;4.398;2023-12-20T13:36:06;10.60;99.90
40454;DHT22;26160;51.858;4.398;2023-12-20T13:38:33;10.60;99.90
40454;DHT22;26160;51.858;4.398;2023-12-20T13:40:59;10.60;99.90
40454;DHT22;26160;51.858;4.398;2023-12-20T13:43:25;10.50;99.90
40454;DHT22;26160;51.858;4.398;2023-12-20T13:45:51;10.50;99.90
40454;DHT22;26160;51.858;4.398;2023-12-20T13:48:18;10.50;99.90
40454;DHT22;26160;51.858;4.398;2023-12-20T13:50:44;10.40;99.90
40454;DHT22;26160;51.858;4.398;2023-12-20T13:53:10;10.40;99.90
40454;DHT22;26160;51.858;4.398;2023-12-20T13:55:36;10.40;99.90
40454;DHT22;26160;51.858;4.398;2023-12-20T13:58:03;10.40;99.90
40454;DHT22;26160;51.858;4.398;2023-12-20T14:00:29;10.40;99.90
40454;DHT22;26160;51.858;4.398;2023-12-20T14:02:55;10.40;99.90
40454;DHT22;26160;51.858;4.398;2023-12-20T14:05:22;10.40;99.90
40454;DHT22;26160;51.858;4.398;2023-12-20T14:07:49;10.40;99.90
40454;DHT22;26160;51.858;4.398;2023-12-20T14:10:15;10.40;99.90
40454;DHT22;26160;51.858;4.398;2023-12-20T14:12:42;10.40;99.90
40454;DHT22;26160;51.858;4.398;2023-12-20T14:15:11;10.40;99.90
40454;DHT22;26160;51.858;4.398;2023-12-20T14:17:39;10.40;99.90
40454;DHT22;26160;51.858;4.398;2023-12-20T14:20:06;10.40;99.90
40454;DHT22;26160;51.858;4.398;2023-12-20T14:22:33;10.40;99.90
40454;DHT22;26160;51.858;4.398;2023-12-20T14:25:00;10.40;99.90
40454;DHT22;26160;51.858;4.398;2023-12-20T14:27:26;10.40;99.90
40454;DHT22;26160;51.858;4.398;2023-12-20T14:29:56;10.40;99.90
40454;DHT22;26160;51.858;4.398;2023-12-20T14:32:22;10.40;99.90
40454;DHT22;26160;51.858;4.398;2023-12-20T14:34:48;10.30;99.90
40454;DHT22;26160;51.858;4.398;2023-12-20T14:37:14;10.30;99.90
40454;DHT22;26160;51.858;4.398;2023-12-20T14:39:42;10.30;99.90
40454;DHT22;26160;51.858;4.398;2023-12-20T14:42:08;10.30;99.90
40454;DHT22;26160;51.858;4.398;2023-12-20T14:44:38;10.30;99.90
40454;DHT22;26160;51.858;4.398;2023-12-20T14:47:04;10.30;99.90
40454;DHT22;26160;51.858;4.398;2023-12-20T14:49:31;10.30;99.90
40454;DHT22;26160;51.858;4.398;2023-12-20T14:52:03;10.30;99.90
40454;DHT22;26160;51.858;4.398;2023-12-20T14:54:30;10.20;99.90
40454;DHT22;26160;51.858;4.398;2023-12-20T14:56:57;10.20;99.90
40454;DHT22;26160;51.858;4.398;2023-12-20T14:59:23;10.20;99.90
40454;DHT22;26160;51.858;4.398;2023-12-20T15:01:49;10.20;99.90
40454;DHT22;26160;51.858;4.398;2023-12-20T15:04:16;10.20;99.90
40454;DHT22;26160;51.858;4.398;2023-12-20T15:06:42;10.20;99.90
40454;DHT22;26160;51.858;4.398;2023-12-20T15:09:09;10.10;99.90
40454;DHT22;26160;51.858;4.398;2023-12-20T15:11:35;10.10;99.90
40454;DHT22;26160;51.858;4.398;2023-12-20T15:14:01;10.00;99.90
40454;DHT22;26160;51.858;4.398;2023-12-20T15:16:28;10.00;99.90
40454;DHT22;26160;51.858;4.398;2023-12-20T15:18:54;10.00;99.90
40454;DHT22;26160;51.858;4.398;2023-12-20T15:21:21;10.00;99.90
40454;DHT22;26160;51.858;4.398;2023-12-20T15:23:56;10.00;99.90
40454;DHT22;26160;51.858;4.398;2023-12-20T15:26:34;10.00;99.90
40454;DHT22;26160;51.858;4.398;2023-12-20T15:29:04;9.90;99.90
40454;DHT22;26160;51.858;4.398;2023-12-20T15:31:30;9.90;99.90
40454;DHT22;26160;51.858;4.398;2023-12-20T15:33:59;9.80;99.90
40454;DHT22;26160;51.858;4.398;2023-12-20T15:36:25;9.80;99.90
40454;DHT22;26160;51.858;4.398;2023-12-20T15:38:52;9.80;99.90
40454;DHT22;26160;51.858;4.398;2023-12-20T15:41:22;9.80;99.90
40454;DHT22;26160;51.858;4.398;2023-12-20T15:43:49;9.80;99.90
40454;DHT22;26160;51.858;4.398;2023-12-20T15:46:16;9.80;99.90
40454;DHT22;26160;51.858;4.398;2023-12-20T15:48:42;9.80;99.90
40454;DHT22;26160;51.858;4.398;2023-12-20T15:51:09;9.80;99.90
40454;DHT22;26160;51.858;4.398;2023-12-20T15:53:35;9.70;99.90
40454;DHT22;26160;51.858;4.398;2023-12-20T15:56:02;9.70;99.90